EWG5NH EGKK-EDDH
Flight info
| Callsign | EWG5NH |
|---|---|
| Flight time | 1h 37m |
| Altitude | 37000 |
| Route | FRANE M604 PAAVO Q295 SOMVA DCT MAVAS DCT ANDIK M105 RIBSO RIBSO3S |
| Aircraft | A320/M-SDE3FGHIRWY/LB1 |
Departure
| Time | 2026-04-25 18:47 |
|---|---|
| Airport | London Gatwick Airport (EGKK) |
Arrival
| Time | 2026-04-25 20:25 |
|---|---|
| Airport | Hamburg Helmut Schmidt Airport (EDDH) |
| Time | Latitude | Longitude | Altitude | Speed | Heading |
|---|---|---|---|---|---|
| 2026-04-25 16:34 | 51.15532 | -0.16601 | 205 ft | 0 kts | 348° |
| 2026-04-25 17:26 | 51.15517 | -0.16596 | 215 ft | 3 kts | 344° |
| 2026-04-25 17:27 | 51.15498 | -0.16586 | 208 ft | 3 kts | 334° |
| 2026-04-25 17:27 | 51.15481 | -0.16570 | 217 ft | 3 kts | 316° |
| 2026-04-25 17:27 | 51.15469 | -0.16546 | 217 ft | 3 kts | 279° |
| 2026-04-25 17:27 | 51.15468 | -0.16539 | 217 ft | 2 kts | 265° |
| 2026-04-25 17:28 | 51.15468 | -0.16532 | 217 ft | 0 kts | 258° |
| 2026-04-25 17:31 | 51.15466 | -0.16546 | 217 ft | 2 kts | 257° |
| 2026-04-25 17:31 | 51.15461 | -0.16584 | 213 ft | 5 kts | 257° |
| 2026-04-25 17:31 | 51.15451 | -0.16654 | 208 ft | 7 kts | 258° |
| 2026-04-25 17:32 | 51.15450 | -0.16748 | 213 ft | 10 kts | 282° |
| 2026-04-25 17:32 | 51.15445 | -0.16860 | 210 ft | 10 kts | 257° |
| 2026-04-25 17:32 | 51.15428 | -0.16981 | 209 ft | 12 kts | 257° |
| 2026-04-25 17:32 | 51.15417 | -0.17061 | 214 ft | 6 kts | 257° |
| 2026-04-25 17:33 | 51.15403 | -0.17141 | 209 ft | 8 kts | 247° |
| 2026-04-25 17:33 | 51.15380 | -0.17240 | 205 ft | 11 kts | 252° |
| 2026-04-25 17:33 | 51.15345 | -0.17357 | 212 ft | 13 kts | 220° |
| 2026-04-25 17:33 | 51.15300 | -0.17437 | 207 ft | 10 kts | 258° |
| 2026-04-25 17:34 | 51.15286 | -0.17559 | 209 ft | 12 kts | 258° |
| 2026-04-25 17:34 | 51.15267 | -0.17704 | 207 ft | 15 kts | 257° |
| 2026-04-25 17:34 | 51.15243 | -0.17874 | 211 ft | 17 kts | 257° |
| 2026-04-25 17:34 | 51.15219 | -0.18050 | 208 ft | 16 kts | 257° |
| 2026-04-25 17:35 | 51.15209 | -0.18121 | 205 ft | 0 kts | 257° |
| 2026-04-25 17:36 | 51.15205 | -0.18150 | 205 ft | 6 kts | 258° |
| 2026-04-25 17:36 | 51.15190 | -0.18275 | 213 ft | 16 kts | 262° |
| 2026-04-25 17:36 | 51.15168 | -0.18468 | 211 ft | 19 kts | 258° |
| 2026-04-25 17:37 | 51.15137 | -0.18688 | 205 ft | 21 kts | 257° |
| 2026-04-25 17:37 | 51.15113 | -0.18865 | 214 ft | 17 kts | 257° |
| 2026-04-25 17:37 | 51.15093 | -0.19012 | 205 ft | 11 kts | 258° |
| 2026-04-25 17:37 | 51.15078 | -0.19122 | 205 ft | 9 kts | 258° |
| 2026-04-25 17:38 | 51.15061 | -0.19242 | 205 ft | 13 kts | 257° |
| 2026-04-25 17:38 | 51.15054 | -0.19294 | 211 ft | 15 kts | 257° |
| 2026-04-25 17:38 | 51.15008 | -0.19626 | 205 ft | 21 kts | 258° |
| 2026-04-25 17:38 | 51.14977 | -0.19851 | 210 ft | 16 kts | 258° |
| 2026-04-25 17:39 | 51.14957 | -0.19996 | 205 ft | 14 kts | 257° |
| 2026-04-25 17:39 | 51.14939 | -0.20128 | 214 ft | 3 kts | 258° |
| 2026-04-25 17:39 | 51.14939 | -0.20134 | 212 ft | 0 kts | 258° |
| 2026-04-25 17:40 | 51.14938 | -0.20139 | 212 ft | 2 kts | 258° |
| 2026-04-25 17:40 | 51.14934 | -0.20168 | 207 ft | 4 kts | 256° |
| 2026-04-25 17:40 | 51.14924 | -0.20234 | 210 ft | 9 kts | 257° |
| 2026-04-25 17:41 | 51.14906 | -0.20363 | 205 ft | 15 kts | 258° |
| 2026-04-25 17:41 | 51.14882 | -0.20537 | 209 ft | 17 kts | 257° |
| 2026-04-25 17:41 | 51.14806 | -0.20630 | 213 ft | 17 kts | 148° |
| 2026-04-25 17:41 | 51.14803 | -0.20445 | 211 ft | 21 kts | 77° |
| 2026-04-25 17:42 | 51.14839 | -0.20186 | 204 ft | 26 kts | 77° |
| 2026-04-25 17:42 | 51.14877 | -0.19913 | 212 ft | 25 kts | 77° |
| 2026-04-25 17:42 | 51.14917 | -0.19628 | 210 ft | 29 kts | 78° |
| 2026-04-25 17:42 | 51.14958 | -0.19330 | 216 ft | 22 kts | 74° |
| 2026-04-25 17:43 | 51.15063 | -0.19223 | 205 ft | 18 kts | 61° |
| 2026-04-25 17:43 | 51.15093 | -0.19015 | 208 ft | 20 kts | 78° |
| 2026-04-25 17:43 | 51.15119 | -0.18826 | 214 ft | 16 kts | 78° |
| 2026-04-25 17:43 | 51.15173 | -0.18702 | 206 ft | 11 kts | 0° |
| 2026-04-25 17:44 | 51.15217 | -0.18755 | 206 ft | 7 kts | 269° |
| 2026-04-25 17:44 | 51.15209 | -0.18817 | 205 ft | 5 kts | 257° |
| 2026-04-25 17:44 | 51.15203 | -0.18854 | 205 ft | 2 kts | 257° |
| 2026-04-25 17:44 | 51.15203 | -0.18856 | 205 ft | 0 kts | 257° |
| 2026-04-25 18:32 | 51.15203 | -0.18854 | 205 ft | 1 kts | 257° |
| 2026-04-25 18:33 | 51.15207 | -0.18829 | 188 ft | 3 kts | 255° |
| 2026-04-25 18:33 | 51.15213 | -0.18798 | 207 ft | 3 kts | 250° |
| 2026-04-25 18:33 | 51.15220 | -0.18769 | 217 ft | 3 kts | 242° |
| 2026-04-25 18:33 | 51.15231 | -0.18742 | 217 ft | 3 kts | 223° |
| 2026-04-25 18:34 | 51.15245 | -0.18727 | 216 ft | 2 kts | 175° |
| 2026-04-25 18:34 | 51.15253 | -0.18729 | 215 ft | 1 kts | 167° |
| 2026-04-25 18:34 | 51.15254 | -0.18729 | 215 ft | 0 kts | 167° |
| 2026-04-25 18:39 | 51.15252 | -0.18728 | 205 ft | 2 kts | 167° |
| 2026-04-25 18:39 | 51.15222 | -0.18718 | 205 ft | 4 kts | 167° |
| 2026-04-25 18:40 | 51.15183 | -0.18704 | 212 ft | 8 kts | 167° |
| 2026-04-25 18:40 | 51.15132 | -0.18743 | 205 ft | 10 kts | 242° |
| 2026-04-25 18:40 | 51.15111 | -0.18867 | 214 ft | 13 kts | 258° |
| 2026-04-25 18:40 | 51.15091 | -0.19018 | 205 ft | 15 kts | 258° |
| 2026-04-25 18:41 | 51.15068 | -0.19193 | 210 ft | 18 kts | 257° |
| 2026-04-25 18:41 | 51.15039 | -0.19397 | 211 ft | 20 kts | 256° |
| 2026-04-25 18:41 | 51.15008 | -0.19625 | 205 ft | 22 kts | 258° |
| 2026-04-25 18:41 | 51.14973 | -0.19877 | 205 ft | 24 kts | 257° |
| 2026-04-25 18:42 | 51.14935 | -0.20153 | 209 ft | 26 kts | 258° |
| 2026-04-25 18:42 | 51.14908 | -0.20346 | 208 ft | 28 kts | 257° |
| 2026-04-25 18:42 | 51.14861 | -0.20691 | 205 ft | 17 kts | 258° |
| 2026-04-25 18:42 | 51.14833 | -0.20882 | 207 ft | 19 kts | 257° |
| 2026-04-25 18:43 | 51.14811 | -0.21046 | 214 ft | 16 kts | 257° |
| 2026-04-25 18:43 | 51.14784 | -0.21191 | 205 ft | 13 kts | 250° |
| 2026-04-25 18:43 | 51.14768 | -0.21291 | 210 ft | 9 kts | 258° |
| 2026-04-25 18:43 | 51.14742 | -0.21393 | 213 ft | 11 kts | 218° |
| 2026-04-25 18:44 | 51.14673 | -0.21368 | 210 ft | 10 kts | 146° |
| 2026-04-25 18:44 | 51.14627 | -0.21334 | 209 ft | 2 kts | 167° |
| 2026-04-25 18:44 | 51.14626 | -0.21334 | 209 ft | 0 kts | 167° |
| 2026-04-25 18:45 | 51.14621 | -0.21332 | 205 ft | 3 kts | 167° |
| 2026-04-25 18:45 | 51.14580 | -0.21315 | 211 ft | 9 kts | 161° |
| 2026-04-25 18:46 | 51.14523 | -0.21225 | 208 ft | 15 kts | 110° |
| 2026-04-25 18:46 | 51.14527 | -0.21124 | 213 ft | 4 kts | 77° |
| 2026-04-25 18:46 | 51.14540 | -0.21027 | 216 ft | 18 kts | 78° |
| 2026-04-25 18:46 | 51.14616 | -0.20477 | 215 ft | 86 kts | 77° |
| 2026-04-25 18:47 | 51.14789 | -0.19234 | 213 ft | 141 kts | 78° |
| 2026-04-25 18:47 | 51.15015 | -0.17539 | 529 ft | 152 kts | 79° |
| 2026-04-25 18:47 | 51.15238 | -0.15981 | 1189 ft | 146 kts | 79° |
| 2026-04-25 18:47 | 51.15453 | -0.14392 | 1630 ft | 150 kts | 79° |
| 2026-04-25 18:48 | 51.15675 | -0.12724 | 2008 ft | 162 kts | 78° |
| 2026-04-25 18:48 | 51.15940 | -0.10782 | 2163 ft | 192 kts | 78° |
| 2026-04-25 18:48 | 51.16244 | -0.08572 | 2472 ft | 217 kts | 77° |
| 2026-04-25 18:48 | 51.16586 | -0.06096 | 2905 ft | 241 kts | 77° |
| 2026-04-25 18:49 | 51.16883 | -0.03392 | 3507 ft | 258 kts | 87° |
| 2026-04-25 18:49 | 51.16853 | -0.00503 | 4386 ft | 264 kts | 90° |
| 2026-04-25 18:49 | 51.16802 | 0.02461 | 4875 ft | 270 kts | 90° |
| 2026-04-25 18:49 | 51.16933 | 0.05417 | 5122 ft | 267 kts | 71° |
| 2026-04-25 18:50 | 51.17896 | 0.07915 | 5815 ft | 267 kts | 41° |
| 2026-04-25 18:50 | 51.19447 | 0.09567 | 6637 ft | 270 kts | 28° |
| 2026-04-25 18:50 | 51.21114 | 0.10964 | 7321 ft | 271 kts | 26° |
| 2026-04-25 18:50 | 51.22805 | 0.12352 | 7903 ft | 276 kts | 26° |
| 2026-04-25 18:51 | 51.24516 | 0.13757 | 8304 ft | 276 kts | 26° |
| 2026-04-25 18:51 | 51.25655 | 0.14695 | 8609 ft | 278 kts | 26° |
| 2026-04-25 18:51 | 51.27947 | 0.16583 | 9223 ft | 281 kts | 26° |
| 2026-04-25 18:51 | 51.29700 | 0.18032 | 9696 ft | 284 kts | 26° |
| 2026-04-25 18:52 | 51.31465 | 0.19494 | 10168 ft | 287 kts | 26° |
| 2026-04-25 18:52 | 51.33260 | 0.20988 | 10576 ft | 298 kts | 26° |
| 2026-04-25 18:52 | 51.35172 | 0.22583 | 10810 ft | 321 kts | 26° |
| 2026-04-25 18:52 | 51.37224 | 0.24288 | 11106 ft | 339 kts | 26° |
| 2026-04-25 18:53 | 51.39344 | 0.26052 | 11732 ft | 345 kts | 26° |
| 2026-04-25 18:53 | 51.41460 | 0.27820 | 12421 ft | 349 kts | 26° |
| 2026-04-25 18:53 | 51.43623 | 0.29635 | 13135 ft | 353 kts | 26° |
| 2026-04-25 18:53 | 51.45814 | 0.31487 | 13848 ft | 356 kts | 26° |
| 2026-04-25 18:54 | 51.50241 | 0.35259 | 15111 ft | 363 kts | 26° |
| 2026-04-25 18:54 | 51.52481 | 0.37174 | 15680 ft | 367 kts | 26° |
| 2026-04-25 18:54 | 51.54742 | 0.39112 | 15954 ft | 367 kts | 26° |
| 2026-04-25 18:55 | 51.56975 | 0.41030 | 16255 ft | 369 kts | 26° |
| 2026-04-25 18:55 | 51.59243 | 0.42981 | 16565 ft | 370 kts | 26° |
| 2026-04-25 18:55 | 51.61522 | 0.44946 | 16873 ft | 372 kts | 26° |
| 2026-04-25 18:55 | 51.63808 | 0.46920 | 17120 ft | 374 kts | 26° |
| 2026-04-25 18:56 | 51.66110 | 0.48907 | 17210 ft | 375 kts | 26° |
| 2026-04-25 18:56 | 51.68415 | 0.50900 | 17217 ft | 375 kts | 26° |
| 2026-04-25 18:56 | 51.70712 | 0.52890 | 17219 ft | 375 kts | 26° |
| 2026-04-25 18:56 | 51.73030 | 0.54903 | 17564 ft | 378 kts | 26° |
| 2026-04-25 18:57 | 51.75356 | 0.56926 | 18194 ft | 381 kts | 26° |
| 2026-04-25 18:57 | 51.77701 | 0.58971 | 18786 ft | 385 kts | 26° |
| 2026-04-25 18:57 | 51.80036 | 0.61015 | 19337 ft | 388 kts | 26° |
| 2026-04-25 18:57 | 51.80844 | 0.61725 | 19528 ft | 389 kts | 26° |
| 2026-04-25 18:58 | 51.84830 | 0.65241 | 20466 ft | 396 kts | 26° |
| 2026-04-25 18:58 | 51.89701 | 0.69562 | 21552 ft | 403 kts | 26° |
| 2026-04-25 18:58 | 51.92174 | 0.71762 | 22062 ft | 406 kts | 26° |
| 2026-04-25 18:59 | 51.97177 | 0.76213 | 23055 ft | 413 kts | 26° |
| 2026-04-25 18:59 | 52.02227 | 0.80703 | 23973 ft | 420 kts | 26° |
| 2026-04-25 19:00 | 52.06804 | 0.86642 | 24752 ft | 431 kts | 54° |
| 2026-04-25 19:00 | 52.08128 | 0.91023 | 25134 ft | 436 kts | 72° |
| 2026-04-25 19:01 | 52.09555 | 1.00662 | 25917 ft | 440 kts | 76° |
| 2026-04-25 19:01 | 52.10238 | 1.05541 | 26300 ft | 442 kts | 76° |
| 2026-04-25 19:01 | 52.10922 | 1.10430 | 26676 ft | 445 kts | 76° |
| 2026-04-25 19:01 | 52.11613 | 1.15356 | 27064 ft | 447 kts | 76° |
| 2026-04-25 19:02 | 52.13002 | 1.25262 | 27824 ft | 451 kts | 77° |
| 2026-04-25 19:02 | 52.13704 | 1.30259 | 28198 ft | 453 kts | 77° |
| 2026-04-25 19:02 | 52.14408 | 1.35269 | 28570 ft | 455 kts | 77° |
| 2026-04-25 19:03 | 52.15343 | 1.41932 | 29047 ft | 458 kts | 77° |
| 2026-04-25 19:03 | 52.16528 | 1.50372 | 29629 ft | 461 kts | 77° |
| 2026-04-25 19:03 | 52.17244 | 1.55474 | 30001 ft | 462 kts | 77° |
| 2026-04-25 19:04 | 52.18667 | 1.65649 | 30905 ft | 459 kts | 77° |
| 2026-04-25 19:04 | 52.19372 | 1.70728 | 31323 ft | 458 kts | 77° |
| 2026-04-25 19:05 | 52.20768 | 1.80861 | 32158 ft | 456 kts | 77° |
| 2026-04-25 19:05 | 52.22146 | 1.90953 | 33007 ft | 455 kts | 77° |
| 2026-04-25 19:05 | 52.22820 | 1.95921 | 33427 ft | 454 kts | 77° |
| 2026-04-25 19:06 | 52.23500 | 2.00957 | 33865 ft | 453 kts | 77° |
| 2026-04-25 19:06 | 52.24848 | 2.10997 | 34663 ft | 451 kts | 77° |
| 2026-04-25 19:06 | 52.25516 | 2.15989 | 35008 ft | 451 kts | 77° |
| 2026-04-25 19:07 | 52.26854 | 2.26010 | 35550 ft | 451 kts | 77° |
| 2026-04-25 19:07 | 52.27511 | 2.30942 | 35798 ft | 450 kts | 77° |
| 2026-04-25 19:08 | 52.28840 | 2.40939 | 36307 ft | 450 kts | 77° |
| 2026-04-25 19:08 | 52.29503 | 2.45940 | 36566 ft | 450 kts | 77° |
| 2026-04-25 19:09 | 52.31486 | 2.60965 | 37236 ft | 450 kts | 77° |
| 2026-04-25 19:09 | 52.31704 | 2.62593 | 37254 ft | 452 kts | 76° |
| 2026-04-25 19:10 | 52.34464 | 2.80842 | 37254 ft | 450 kts | 75° |
| 2026-04-25 19:10 | 52.35753 | 2.89099 | 37257 ft | 450 kts | 75° |
| 2026-04-25 19:11 | 52.37506 | 3.00672 | 37257 ft | 450 kts | 75° |
| 2026-04-25 19:11 | 52.38733 | 3.08953 | 37260 ft | 450 kts | 76° |
| 2026-04-25 19:12 | 52.40203 | 3.18924 | 37265 ft | 450 kts | 75° |
| 2026-04-25 19:12 | 52.41855 | 3.28840 | 37268 ft | 450 kts | 73° |
| 2026-04-25 19:13 | 52.43612 | 3.38699 | 37271 ft | 450 kts | 72° |
| 2026-04-25 19:13 | 52.45330 | 3.48552 | 37286 ft | 448 kts | 73° |
| 2026-04-25 19:14 | 52.46975 | 3.58349 | 37288 ft | 447 kts | 73° |
| 2026-04-25 19:14 | 52.48604 | 3.68173 | 37288 ft | 446 kts | 73° |
| 2026-04-25 19:15 | 52.50233 | 3.77988 | 37281 ft | 446 kts | 73° |
| 2026-04-25 19:15 | 52.51869 | 3.87815 | 37282 ft | 445 kts | 73° |
| 2026-04-25 19:16 | 52.53481 | 3.97579 | 37277 ft | 445 kts | 73° |
| 2026-04-25 19:16 | 52.55091 | 4.07419 | 37277 ft | 445 kts | 73° |
| 2026-04-25 19:17 | 52.56691 | 4.17245 | 37271 ft | 445 kts | 73° |
| 2026-04-25 19:17 | 52.58289 | 4.27107 | 37269 ft | 445 kts | 73° |
| 2026-04-25 19:18 | 52.59876 | 4.36956 | 37268 ft | 445 kts | 73° |
| 2026-04-25 19:18 | 52.61454 | 4.46823 | 37257 ft | 445 kts | 73° |
| 2026-04-25 19:19 | 52.63015 | 4.56642 | 37259 ft | 446 kts | 73° |
| 2026-04-25 19:19 | 52.64582 | 4.66525 | 37258 ft | 446 kts | 73° |
| 2026-04-25 19:20 | 52.65872 | 4.74745 | 37259 ft | 446 kts | 73° |
| 2026-04-25 19:20 | 52.67685 | 4.86342 | 37260 ft | 446 kts | 73° |
| 2026-04-25 19:21 | 52.69215 | 4.96201 | 37259 ft | 447 kts | 73° |
| 2026-04-25 19:21 | 52.71505 | 5.11091 | 37269 ft | 445 kts | 73° |
| 2026-04-25 19:22 | 52.73022 | 5.21029 | 37251 ft | 447 kts | 73° |
| 2026-04-25 19:23 | 52.75851 | 5.35865 | 37230 ft | 456 kts | 67° |
| 2026-04-25 19:23 | 52.79058 | 5.50698 | 37227 ft | 457 kts | 67° |
| 2026-04-25 19:24 | 52.81169 | 5.60538 | 37225 ft | 457 kts | 67° |
| 2026-04-25 19:25 | 52.85384 | 5.80420 | 37229 ft | 457 kts | 68° |
| 2026-04-25 19:25 | 52.87480 | 5.90314 | 37229 ft | 457 kts | 67° |
| 2026-04-25 19:26 | 52.89160 | 6.00512 | 37231 ft | 460 kts | 75° |
| 2026-04-25 19:26 | 52.90495 | 6.10883 | 37233 ft | 460 kts | 75° |
| 2026-04-25 19:27 | 52.91585 | 6.19514 | 37232 ft | 460 kts | 75° |
| 2026-04-25 19:27 | 52.93097 | 6.31664 | 37233 ft | 460 kts | 75° |
| 2026-04-25 19:28 | 52.94384 | 6.42048 | 37237 ft | 460 kts | 75° |
| 2026-04-25 19:28 | 52.95665 | 6.52455 | 37238 ft | 459 kts | 75° |
| 2026-04-25 19:29 | 52.96922 | 6.62778 | 37239 ft | 459 kts | 75° |
| 2026-04-25 19:29 | 52.98184 | 6.73186 | 37241 ft | 459 kts | 75° |
| 2026-04-25 19:30 | 52.99435 | 6.83571 | 37238 ft | 458 kts | 75° |
| 2026-04-25 19:30 | 53.00055 | 6.88779 | 36999 ft | 460 kts | 75° |
| 2026-04-25 19:30 | 53.00666 | 6.93917 | 36464 ft | 458 kts | 75° |
| 2026-04-25 19:31 | 53.01281 | 6.99115 | 35952 ft | 457 kts | 75° |
| 2026-04-25 19:31 | 53.01892 | 7.04296 | 35447 ft | 457 kts | 75° |
| 2026-04-25 19:31 | 53.02504 | 7.09486 | 35007 ft | 457 kts | 75° |
| 2026-04-25 19:31 | 53.03114 | 7.14693 | 34603 ft | 458 kts | 75° |
| 2026-04-25 19:32 | 53.03724 | 7.19904 | 34216 ft | 459 kts | 75° |
| 2026-04-25 19:32 | 53.04333 | 7.25128 | 33788 ft | 460 kts | 75° |
| 2026-04-25 19:32 | 53.04940 | 7.30363 | 33356 ft | 462 kts | 75° |
| 2026-04-25 19:32 | 53.05343 | 7.33847 | 33073 ft | 463 kts | 75° |
| 2026-04-25 19:33 | 53.06145 | 7.40837 | 32510 ft | 466 kts | 75° |
| 2026-04-25 19:33 | 53.06754 | 7.46169 | 32098 ft | 468 kts | 75° |
| 2026-04-25 19:33 | 53.07362 | 7.51504 | 31689 ft | 470 kts | 75° |
| 2026-04-25 19:33 | 53.07973 | 7.56876 | 31297 ft | 472 kts | 75° |
| 2026-04-25 19:34 | 53.08582 | 7.62271 | 30908 ft | 474 kts | 75° |
| 2026-04-25 19:34 | 53.09187 | 7.67665 | 30539 ft | 474 kts | 75° |
| 2026-04-25 19:34 | 53.09778 | 7.72985 | 30175 ft | 473 kts | 75° |
| 2026-04-25 19:34 | 53.10373 | 7.78360 | 29752 ft | 471 kts | 75° |
| 2026-04-25 19:35 | 53.10964 | 7.83717 | 29334 ft | 468 kts | 75° |
| 2026-04-25 19:35 | 53.11548 | 7.89036 | 28917 ft | 465 kts | 75° |
| 2026-04-25 19:35 | 53.12130 | 7.94335 | 28510 ft | 463 kts | 75° |
| 2026-04-25 19:35 | 53.12708 | 7.99593 | 28043 ft | 460 kts | 75° |
| 2026-04-25 19:36 | 53.13281 | 8.04809 | 27488 ft | 454 kts | 75° |
| 2026-04-25 19:36 | 53.13838 | 8.09917 | 26954 ft | 452 kts | 75° |
| 2026-04-25 19:36 | 53.14393 | 8.15048 | 26422 ft | 448 kts | 75° |
| 2026-04-25 19:36 | 53.14942 | 8.20163 | 25893 ft | 445 kts | 75° |
| 2026-04-25 19:37 | 53.15484 | 8.25228 | 25390 ft | 442 kts | 75° |
| 2026-04-25 19:37 | 53.16022 | 8.30271 | 24882 ft | 439 kts | 74° |
| 2026-04-25 19:37 | 53.16545 | 8.35203 | 24400 ft | 436 kts | 74° |
| 2026-04-25 19:37 | 53.17071 | 8.40168 | 23906 ft | 433 kts | 74° |
| 2026-04-25 19:38 | 53.17592 | 8.45093 | 23375 ft | 430 kts | 74° |
| 2026-04-25 19:38 | 53.18109 | 8.49994 | 22804 ft | 428 kts | 74° |
| 2026-04-25 19:38 | 53.18622 | 8.54871 | 22249 ft | 425 kts | 74° |
| 2026-04-25 19:38 | 53.19126 | 8.59728 | 21699 ft | 423 kts | 74° |
| 2026-04-25 19:39 | 53.19624 | 8.64564 | 21169 ft | 421 kts | 74° |
| 2026-04-25 19:39 | 53.20121 | 8.69389 | 20640 ft | 420 kts | 74° |
| 2026-04-25 19:39 | 53.20608 | 8.74127 | 20131 ft | 418 kts | 74° |
| 2026-04-25 19:39 | 53.21094 | 8.78891 | 19675 ft | 415 kts | 73° |
| 2026-04-25 19:40 | 53.21574 | 8.83621 | 19246 ft | 411 kts | 73° |
| 2026-04-25 19:40 | 53.22049 | 8.88299 | 18822 ft | 406 kts | 73° |
| 2026-04-25 19:40 | 53.22517 | 8.92930 | 18391 ft | 402 kts | 73° |
| 2026-04-25 19:40 | 53.22982 | 8.97517 | 17910 ft | 398 kts | 73° |
| 2026-04-25 19:41 | 53.23440 | 9.02051 | 17435 ft | 393 kts | 73° |
| 2026-04-25 19:41 | 53.23889 | 9.06537 | 16964 ft | 389 kts | 73° |
| 2026-04-25 19:41 | 53.24325 | 9.10905 | 16510 ft | 385 kts | 73° |
| 2026-04-25 19:41 | 53.24472 | 9.12388 | 16354 ft | 383 kts | 73° |
| 2026-04-25 19:42 | 53.25187 | 9.19640 | 15602 ft | 377 kts | 73° |
| 2026-04-25 19:42 | 53.25609 | 9.23952 | 15147 ft | 374 kts | 73° |
| 2026-04-25 19:42 | 53.26018 | 9.28168 | 14710 ft | 359 kts | 73° |
| 2026-04-25 19:42 | 53.26409 | 9.32221 | 14284 ft | 348 kts | 72° |
| 2026-04-25 19:43 | 53.26796 | 9.36189 | 13895 ft | 345 kts | 72° |
| 2026-04-25 19:43 | 53.27183 | 9.40136 | 13496 ft | 343 kts | 72° |
| 2026-04-25 19:43 | 53.27569 | 9.44058 | 13088 ft | 342 kts | 72° |
| 2026-04-25 19:43 | 53.27952 | 9.47971 | 12638 ft | 339 kts | 72° |
| 2026-04-25 19:44 | 53.28317 | 9.51770 | 12208 ft | 329 kts | 72° |
| 2026-04-25 19:44 | 53.28670 | 9.55525 | 11779 ft | 325 kts | 72° |
| 2026-04-25 19:44 | 53.29019 | 9.59249 | 11357 ft | 323 kts | 72° |
| 2026-04-25 19:44 | 53.29365 | 9.62941 | 10910 ft | 320 kts | 72° |
| 2026-04-25 19:45 | 53.29709 | 9.66618 | 10474 ft | 319 kts | 73° |
| 2026-04-25 19:45 | 53.30053 | 9.70269 | 10042 ft | 316 kts | 73° |
| 2026-04-25 19:45 | 53.30394 | 9.73894 | 9567 ft | 314 kts | 73° |
| 2026-04-25 19:45 | 53.30732 | 9.77490 | 9121 ft | 312 kts | 73° |
| 2026-04-25 19:46 | 53.31063 | 9.81056 | 8678 ft | 309 kts | 73° |
| 2026-04-25 19:46 | 53.31384 | 9.84538 | 8245 ft | 305 kts | 73° |
| 2026-04-25 19:46 | 53.31705 | 9.88035 | 7812 ft | 302 kts | 73° |
| 2026-04-25 19:46 | 53.32021 | 9.91493 | 7389 ft | 300 kts | 73° |
| 2026-04-25 19:47 | 53.32339 | 9.94940 | 6968 ft | 297 kts | 73° |
| 2026-04-25 19:47 | 53.32631 | 9.98334 | 6555 ft | 296 kts | 78° |
| 2026-04-25 19:47 | 53.32590 | 10.01825 | 6146 ft | 305 kts | 92° |
| 2026-04-25 19:47 | 53.32097 | 10.05296 | 5830 ft | 309 kts | 105° |
| 2026-04-25 19:48 | 53.31177 | 10.08511 | 5502 ft | 301 kts | 119° |
| 2026-04-25 19:48 | 53.30096 | 10.11410 | 5196 ft | 285 kts | 109° |
| 2026-04-25 19:48 | 53.29699 | 10.14489 | 4890 ft | 260 kts | 81° |
| 2026-04-25 19:48 | 53.30148 | 10.17241 | 4582 ft | 238 kts | 49° |
| 2026-04-25 19:49 | 53.31236 | 10.19154 | 4262 ft | 220 kts | 22° |
| 2026-04-25 19:49 | 53.31676 | 10.19514 | 4171 ft | 214 kts | 13° |
| 2026-04-25 19:49 | 53.34036 | 10.20457 | 3754 ft | 205 kts | 5° |
| 2026-04-25 19:49 | 53.35420 | 10.20894 | 3578 ft | 203 kts | 4° |
| 2026-04-25 19:50 | 53.38162 | 10.21280 | 3222 ft | 193 kts | 338° |
| 2026-04-25 19:50 | 53.39314 | 10.20150 | 3101 ft | 193 kts | 325° |
| 2026-04-25 19:50 | 53.40485 | 10.19029 | 3011 ft | 191 kts | 330° |
| 2026-04-25 19:51 | 53.41635 | 10.18029 | 2999 ft | 186 kts | 331° |
| 2026-04-25 19:51 | 53.42781 | 10.17040 | 3000 ft | 184 kts | 331° |
| 2026-04-25 19:51 | 53.43924 | 10.16053 | 3002 ft | 184 kts | 331° |
| 2026-04-25 19:51 | 53.45058 | 10.15075 | 3003 ft | 180 kts | 331° |
| 2026-04-25 19:52 | 53.46181 | 10.14109 | 3005 ft | 183 kts | 331° |
| 2026-04-25 19:52 | 53.47321 | 10.13132 | 3007 ft | 184 kts | 331° |
| 2026-04-25 19:52 | 53.48449 | 10.12168 | 3010 ft | 184 kts | 331° |
| 2026-04-25 19:52 | 53.49591 | 10.11190 | 2996 ft | 182 kts | 331° |
| 2026-04-25 19:53 | 53.50717 | 10.10225 | 2699 ft | 181 kts | 330° |
| 2026-04-25 19:53 | 53.51468 | 10.09582 | 2533 ft | 176 kts | 330° |
| 2026-04-25 19:53 | 53.52495 | 10.08707 | 2332 ft | 160 kts | 330° |
| 2026-04-25 19:53 | 53.53453 | 10.07888 | 2100 ft | 149 kts | 329° |
| 2026-04-25 19:54 | 53.54363 | 10.07106 | 1900 ft | 145 kts | 329° |
| 2026-04-25 19:54 | 53.55251 | 10.06343 | 1732 ft | 136 kts | 329° |
| 2026-04-25 19:54 | 53.56042 | 10.05674 | 1514 ft | 126 kts | 328° |
| 2026-04-25 19:54 | 53.56564 | 10.05215 | 1383 ft | 129 kts | 328° |
| 2026-04-25 19:55 | 53.57663 | 10.04258 | 1173 ft | 137 kts | 329° |
| 2026-04-25 19:55 | 53.58519 | 10.03523 | 983 ft | 141 kts | 330° |
| 2026-04-25 19:55 | 53.59383 | 10.02769 | 765 ft | 139 kts | 328° |
| 2026-04-25 19:55 | 53.60235 | 10.02035 | 568 ft | 136 kts | 328° |
| 2026-04-25 19:56 | 53.61072 | 10.01309 | 431 ft | 135 kts | 329° |
| 2026-04-25 19:56 | 53.61917 | 10.00572 | 253 ft | 136 kts | 328° |
| 2026-04-25 19:56 | 53.62754 | 9.99848 | 101 ft | 135 kts | 328° |
| 2026-04-25 19:56 | 53.63545 | 9.99156 | 50 ft | 114 kts | 332° |
| 2026-04-25 19:57 | 53.64267 | 9.98524 | 238 ft | 130 kts | 330° |
| 2026-04-25 19:57 | 53.65138 | 9.97842 | 884 ft | 141 kts | 333° |
| 2026-04-25 19:57 | 53.66034 | 9.97171 | 1452 ft | 140 kts | 333° |
| 2026-04-25 19:57 | 53.66976 | 9.96477 | 1798 ft | 157 kts | 333° |
| 2026-04-25 19:58 | 53.68018 | 9.95695 | 2115 ft | 171 kts | 333° |
| 2026-04-25 19:58 | 53.69117 | 9.94854 | 2416 ft | 175 kts | 333° |
| 2026-04-25 19:58 | 53.70232 | 9.93994 | 2735 ft | 176 kts | 333° |
| 2026-04-25 19:58 | 53.71349 | 9.93116 | 3049 ft | 177 kts | 333° |
| 2026-04-25 19:59 | 53.72516 | 9.92491 | 3359 ft | 181 kts | 359° |
| 2026-04-25 19:59 | 53.73664 | 9.93472 | 3634 ft | 201 kts | 43° |
| 2026-04-25 19:59 | 53.74103 | 9.95839 | 3896 ft | 232 kts | 86° |
| 2026-04-25 19:59 | 53.73619 | 9.98539 | 3998 ft | 246 kts | 108° |
| 2026-04-25 20:00 | 53.72968 | 10.01226 | 4010 ft | 251 kts | 106° |
| 2026-04-25 20:00 | 53.72548 | 10.03061 | 4010 ft | 254 kts | 105° |
| 2026-04-25 20:00 | 53.71709 | 10.06769 | 4013 ft | 255 kts | 105° |
| 2026-04-25 20:00 | 53.71073 | 10.09566 | 4007 ft | 254 kts | 105° |
| 2026-04-25 20:01 | 53.69793 | 10.15135 | 4010 ft | 254 kts | 105° |
| 2026-04-25 20:01 | 53.69154 | 10.17925 | 4006 ft | 255 kts | 105° |
| 2026-04-25 20:01 | 53.68525 | 10.20712 | 4004 ft | 255 kts | 105° |
| 2026-04-25 20:02 | 53.67894 | 10.23526 | 4007 ft | 255 kts | 105° |
| 2026-04-25 20:02 | 53.67264 | 10.26330 | 4002 ft | 256 kts | 105° |
| 2026-04-25 20:02 | 53.66641 | 10.29104 | 4003 ft | 255 kts | 105° |
| 2026-04-25 20:02 | 53.66012 | 10.31908 | 3996 ft | 256 kts | 105° |
| 2026-04-25 20:03 | 53.65380 | 10.34706 | 3998 ft | 256 kts | 105° |
| 2026-04-25 20:03 | 53.64631 | 10.37439 | 3990 ft | 260 kts | 123° |
| 2026-04-25 20:03 | 53.63308 | 10.39551 | 3997 ft | 263 kts | 142° |
| 2026-04-25 20:03 | 53.61819 | 10.41366 | 3990 ft | 264 kts | 144° |
| 2026-04-25 20:04 | 53.60316 | 10.43140 | 3981 ft | 264 kts | 144° |
| 2026-04-25 20:04 | 53.58827 | 10.44888 | 3979 ft | 264 kts | 144° |
| 2026-04-25 20:04 | 53.57317 | 10.46661 | 3981 ft | 264 kts | 144° |
| 2026-04-25 20:04 | 53.55808 | 10.48431 | 3980 ft | 264 kts | 144° |
| 2026-04-25 20:05 | 53.54297 | 10.50202 | 3977 ft | 265 kts | 144° |
| 2026-04-25 20:05 | 53.52784 | 10.51975 | 3980 ft | 265 kts | 144° |
| 2026-04-25 20:05 | 53.51267 | 10.53754 | 3981 ft | 265 kts | 144° |
| 2026-04-25 20:05 | 53.49773 | 10.55506 | 3981 ft | 265 kts | 144° |
| 2026-04-25 20:06 | 53.48263 | 10.57279 | 3985 ft | 265 kts | 144° |
| 2026-04-25 20:06 | 53.46752 | 10.59054 | 3979 ft | 265 kts | 144° |
| 2026-04-25 20:06 | 53.45241 | 10.60832 | 3977 ft | 265 kts | 144° |
| 2026-04-25 20:06 | 53.43730 | 10.62615 | 3975 ft | 265 kts | 144° |
| 2026-04-25 20:07 | 53.42223 | 10.64398 | 3980 ft | 265 kts | 144° |
| 2026-04-25 20:07 | 53.40711 | 10.66183 | 3979 ft | 265 kts | 144° |
| 2026-04-25 20:07 | 53.39199 | 10.67971 | 3977 ft | 265 kts | 144° |
| 2026-04-25 20:07 | 53.37693 | 10.69755 | 3978 ft | 265 kts | 144° |
| 2026-04-25 20:08 | 53.36206 | 10.71520 | 3977 ft | 265 kts | 144° |
| 2026-04-25 20:08 | 53.34703 | 10.73304 | 3974 ft | 265 kts | 144° |
| 2026-04-25 20:08 | 53.33200 | 10.75089 | 3979 ft | 265 kts | 144° |
| 2026-04-25 20:08 | 53.31691 | 10.76882 | 3977 ft | 265 kts | 144° |
| 2026-04-25 20:09 | 53.30184 | 10.78675 | 3978 ft | 265 kts | 144° |
| 2026-04-25 20:09 | 53.28679 | 10.80468 | 3979 ft | 265 kts | 144° |
| 2026-04-25 20:09 | 53.27098 | 10.82035 | 3966 ft | 262 kts | 165° |
| 2026-04-25 20:09 | 53.25332 | 10.82285 | 3973 ft | 252 kts | 198° |
| 2026-04-25 20:10 | 53.23828 | 10.81118 | 3980 ft | 234 kts | 230° |
| 2026-04-25 20:10 | 53.22915 | 10.79006 | 3987 ft | 221 kts | 251° |
| 2026-04-25 20:10 | 53.22253 | 10.76690 | 3985 ft | 221 kts | 254° |
| 2026-04-25 20:10 | 53.21622 | 10.74346 | 3987 ft | 221 kts | 255° |
| 2026-04-25 20:11 | 53.20997 | 10.72006 | 3978 ft | 221 kts | 255° |
| 2026-04-25 20:11 | 53.20374 | 10.69674 | 3985 ft | 219 kts | 256° |
| 2026-04-25 20:11 | 53.20111 | 10.67290 | 3974 ft | 203 kts | 285° |
| 2026-04-25 20:11 | 53.20603 | 10.65147 | 3988 ft | 197 kts | 302° |
| 2026-04-25 20:12 | 53.21290 | 10.63160 | 3991 ft | 197 kts | 304° |
| 2026-04-25 20:12 | 53.21989 | 10.61219 | 3988 ft | 198 kts | 304° |
| 2026-04-25 20:12 | 53.22698 | 10.59249 | 3994 ft | 198 kts | 304° |
| 2026-04-25 20:12 | 53.22937 | 10.58583 | 3986 ft | 198 kts | 304° |
| 2026-04-25 20:13 | 53.23904 | 10.55094 | 3993 ft | 201 kts | 295° |
| 2026-04-25 20:13 | 53.24374 | 10.52887 | 3988 ft | 201 kts | 294° |
| 2026-04-25 20:13 | 53.24842 | 10.50689 | 3993 ft | 201 kts | 294° |
| 2026-04-25 20:13 | 53.25313 | 10.48487 | 3993 ft | 201 kts | 294° |
| 2026-04-25 20:14 | 53.25784 | 10.46278 | 3990 ft | 202 kts | 294° |
| 2026-04-25 20:14 | 53.26254 | 10.44073 | 3990 ft | 202 kts | 294° |
| 2026-04-25 20:14 | 53.26724 | 10.41859 | 3996 ft | 202 kts | 295° |
| 2026-04-25 20:14 | 53.27194 | 10.39639 | 3994 ft | 202 kts | 294° |
| 2026-04-25 20:15 | 53.27662 | 10.37423 | 3997 ft | 202 kts | 295° |
| 2026-04-25 20:15 | 53.28119 | 10.35232 | 4002 ft | 202 kts | 294° |
| 2026-04-25 20:15 | 53.28577 | 10.33017 | 3996 ft | 202 kts | 295° |
| 2026-04-25 20:15 | 53.29034 | 10.30797 | 3995 ft | 202 kts | 294° |
| 2026-04-25 20:16 | 53.29491 | 10.28577 | 4003 ft | 202 kts | 294° |
| 2026-04-25 20:16 | 53.29950 | 10.26345 | 4006 ft | 202 kts | 294° |
| 2026-04-25 20:16 | 53.30400 | 10.24155 | 4006 ft | 202 kts | 294° |
| 2026-04-25 20:16 | 53.30966 | 10.22029 | 4003 ft | 198 kts | 312° |
| 2026-04-25 20:17 | 53.32094 | 10.20816 | 4002 ft | 198 kts | 346° |
| 2026-04-25 20:17 | 53.33477 | 10.20659 | 4016 ft | 200 kts | 354° |
| 2026-04-25 20:17 | 53.34864 | 10.20575 | 4013 ft | 199 kts | 354° |
| 2026-04-25 20:17 | 53.36250 | 10.20492 | 4006 ft | 199 kts | 354° |
| 2026-04-25 20:18 | 53.37642 | 10.20408 | 3941 ft | 201 kts | 354° |
| 2026-04-25 20:18 | 53.39012 | 10.20144 | 3673 ft | 195 kts | 340° |
| 2026-04-25 20:18 | 53.40214 | 10.19142 | 3412 ft | 191 kts | 330° |
| 2026-04-25 20:18 | 53.41386 | 10.18108 | 3154 ft | 189 kts | 332° |
| 2026-04-25 20:19 | 53.42550 | 10.17133 | 3026 ft | 186 kts | 332° |
| 2026-04-25 20:19 | 53.43701 | 10.16170 | 3021 ft | 185 kts | 332° |
| 2026-04-25 20:19 | 53.44852 | 10.15201 | 3006 ft | 185 kts | 332° |
| 2026-04-25 20:19 | 53.46001 | 10.14229 | 3006 ft | 185 kts | 332° |
| 2026-04-25 20:20 | 53.47148 | 10.13257 | 3006 ft | 184 kts | 332° |
| 2026-04-25 20:20 | 53.48269 | 10.12305 | 3004 ft | 178 kts | 332° |
| 2026-04-25 20:20 | 53.49365 | 10.11373 | 3005 ft | 176 kts | 332° |
| 2026-04-25 20:20 | 53.50461 | 10.10436 | 2780 ft | 176 kts | 331° |
| 2026-04-25 20:21 | 53.51516 | 10.09536 | 2528 ft | 163 kts | 331° |
| 2026-04-25 20:21 | 53.52470 | 10.08722 | 2329 ft | 149 kts | 331° |
| 2026-04-25 20:21 | 53.53361 | 10.07960 | 2114 ft | 137 kts | 330° |
| 2026-04-25 20:21 | 53.54174 | 10.07263 | 1958 ft | 127 kts | 329° |
| 2026-04-25 20:22 | 53.54956 | 10.06591 | 1780 ft | 124 kts | 329° |
| 2026-04-25 20:22 | 53.55215 | 10.06368 | 1734 ft | 124 kts | 329° |
| 2026-04-25 20:22 | 53.56488 | 10.05269 | 1444 ft | 123 kts | 330° |
| 2026-04-25 20:22 | 53.57248 | 10.04615 | 1291 ft | 122 kts | 330° |
| 2026-04-25 20:23 | 53.57992 | 10.03974 | 1124 ft | 122 kts | 330° |
| 2026-04-25 20:23 | 53.58768 | 10.03310 | 963 ft | 128 kts | 329° |
| 2026-04-25 20:23 | 53.59561 | 10.02606 | 813 ft | 129 kts | 329° |
| 2026-04-25 20:23 | 53.60364 | 10.01922 | 620 ft | 129 kts | 329° |
| 2026-04-25 20:24 | 53.61165 | 10.01232 | 429 ft | 129 kts | 328° |
| 2026-04-25 20:24 | 53.61953 | 10.00547 | 273 ft | 126 kts | 328° |
| 2026-04-25 20:24 | 53.62733 | 9.99869 | 119 ft | 126 kts | 329° |
| 2026-04-25 20:24 | 53.63485 | 9.99210 | 47 ft | 108 kts | 333° |
| 2026-04-25 20:25 | 53.64004 | 9.98761 | 51 ft | 64 kts | 333° |
| 2026-04-25 20:25 | 53.64353 | 9.98461 | 51 ft | 38 kts | 333° |
| 2026-04-25 20:25 | 53.64594 | 9.98371 | 57 ft | 31 kts | 4° |
| 2026-04-25 20:25 | 53.64694 | 9.98482 | 53 ft | 18 kts | 112° |
| 2026-04-25 20:26 | 53.64601 | 9.98585 | 52 ft | 15 kts | 155° |
| 2026-04-25 20:26 | 53.64501 | 9.98673 | 51 ft | 18 kts | 152° |
| 2026-04-25 20:26 | 53.64379 | 9.98779 | 51 ft | 22 kts | 153° |
| 2026-04-25 20:26 | 53.64243 | 9.98895 | 50 ft | 19 kts | 153° |
| 2026-04-25 20:27 | 53.64123 | 9.98999 | 49 ft | 16 kts | 153° |
| 2026-04-25 20:27 | 53.64014 | 9.99092 | 48 ft | 19 kts | 153° |
| 2026-04-25 20:27 | 53.63887 | 9.99203 | 46 ft | 22 kts | 153° |
| 2026-04-25 20:27 | 53.63755 | 9.99366 | 48 ft | 25 kts | 129° |
| 2026-04-25 20:28 | 53.63672 | 9.99558 | 48 ft | 13 kts | 126° |
| 2026-04-25 20:28 | 53.63629 | 9.99659 | 49 ft | 9 kts | 126° |
| 2026-04-25 20:28 | 53.63616 | 9.99690 | 49 ft | 0 kts | 126° |
| 2026-04-25 20:29 | 53.63615 | 9.99691 | 49 ft | 1 kts | 126° |
| 2026-04-25 20:30 | 53.63598 | 9.99733 | 50 ft | 9 kts | 126° |
| 2026-04-25 20:30 | 53.63547 | 9.99852 | 49 ft | 14 kts | 125° |
| 2026-04-25 20:30 | 53.63493 | 9.99978 | 48 ft | 12 kts | 126° |
| 2026-04-25 20:30 | 53.63457 | 10.00059 | 48 ft | 7 kts | 126° |
| 2026-04-25 20:31 | 53.63446 | 10.00150 | 48 ft | 7 kts | 76° |
| 2026-04-25 20:31 | 53.63447 | 10.00223 | 48 ft | 6 kts | 90° |
| 2026-04-25 20:31 | 53.63449 | 10.00279 | 48 ft | 3 kts | 85° |
| 2026-04-25 20:31 | 53.63450 | 10.00307 | 48 ft | 1 kts | 86° |
| 2026-04-25 20:32 | 53.63451 | 10.00315 | 48 ft | 0 kts | 86° |